sensor_id;sensor_type;location;lat;lon;timestamp;temperature;humidity
40454;DHT22;26160;51.858;4.398;2023-04-01T00:00:52;9.60;99.90
40454;DHT22;26160;51.858;4.398;2023-04-01T00:03:20;9.60;99.90
40454;DHT22;26160;51.858;4.398;2023-04-01T00:05:46;9.60;99.90
40454;DHT22;26160;51.858;4.398;2023-04-01T00:08:13;9.60;99.90
40454;DHT22;26160;51.858;4.398;2023-04-01T00:10:39;9.60;99.90
40454;DHT22;26160;51.858;4.398;2023-04-01T00:13:06;9.60;99.90
40454;DHT22;26160;51.858;4.398;2023-04-01T00:15:32;9.50;99.90
40454;DHT22;26160;51.858;4.398;2023-04-01T00:17:58;9.50;99.90
40454;DHT22;26160;51.858;4.398;2023-04-01T00:20:24;9.50;99.90
40454;DHT22;26160;51.858;4.398;2023-04-01T00:22:51;9.50;99.90
40454;DHT22;26160;51.858;4.398;2023-04-01T00:25:17;9.50;99.90
40454;DHT22;26160;51.858;4.398;2023-04-01T00:27:44;9.50;99.90
40454;DHT22;26160;51.858;4.398;2023-04-01T00:30:10;9.50;99.90
40454;DHT22;26160;51.858;4.398;2023-04-01T00:32:37;9.50;99.90
40454;DHT22;26160;51.858;4.398;2023-04-01T00:35:03;9.50;99.90
40454;DHT22;26160;51.858;4.398;2023-04-01T00:37:30;9.50;99.90
40454;DHT22;26160;51.858;4.398;2023-04-01T00:39:57;9.40;99.90
40454;DHT22;26160;51.858;4.398;2023-04-01T00:42:24;9.50;99.90
40454;DHT22;26160;51.858;4.398;2023-04-01T00:44:53;9.40;99.90
40454;DHT22;26160;51.858;4.398;2023-04-01T00:47:19;9.40;99.90
40454;DHT22;26160;51.858;4.398;2023-04-01T00:49:51;9.50;99.90
40454;DHT22;26160;51.858;4.398;2023-04-01T00:52:21;9.40;99.90
40454;DHT22;26160;51.858;4.398;2023-04-01T00:54:51;9.40;99.90
40454;DHT22;26160;51.858;4.398;2023-04-01T00:57:35;9.40;99.90
40454;DHT22;26160;51.858;4.398;2023-04-01T01:00:06;9.40;99.90
40454;DHT22;26160;51.858;4.398;2023-04-01T01:02:35;9.40;99.90
40454;DHT22;26160;51.858;4.398;2023-04-01T01:05:01;9.40;99.90
40454;DHT22;26160;51.858;4.398;2023-04-01T01:08:00;9.40;99.90
40454;DHT22;26160;51.858;4.398;2023-04-01T01:10:33;9.40;99.90
40454;DHT22;26160;51.858;4.398;2023-04-01T01:13:20;9.40;99.90
40454;DHT22;26160;51.858;4.398;2023-04-01T01:16:13;9.40;99.90
40454;DHT22;26160;51.858;4.398;2023-04-01T01:18:58;9.30;99.90
40454;DHT22;26160;51.858;4.398;2023-04-01T01:21:43;9.40;99.90
40454;DHT22;26160;51.858;4.398;2023-04-01T01:24:40;9.40;99.90
40454;DHT22;26160;51.858;4.398;2023-04-01T01:27:16;9.30;99.90
40454;DHT22;26160;51.858;4.398;2023-04-01T01:30:08;9.30;99.90
40454;DHT22;26160;51.858;4.398;2023-04-01T01:35:48;9.30;99.90
40454;DHT22;26160;51.858;4.398;2023-04-01T01:38:18;9.30;99.90
40454;DHT22;26160;51.858;4.398;2023-04-01T01:40:49;9.40;99.90
40454;DHT22;26160;51.858;4.398;2023-04-01T01:46:19;9.30;99.90
40454;DHT22;26160;51.858;4.398;2023-04-01T01:48:47;9.40;99.90
40454;DHT22;26160;51.858;4.398;2023-04-01T01:51:14;9.40;99.90
40454;DHT22;26160;51.858;4.398;2023-04-01T01:53:41;9.40;99.90
40454;DHT22;26160;51.858;4.398;2023-04-01T01:56:07;9.30;99.90
40454;DHT22;26160;51.858;4.398;2023-04-01T01:58:40;9.40;99.90
40454;DHT22;26160;51.858;4.398;2023-04-01T02:01:14;9.40;99.90
40454;DHT22;26160;51.858;4.398;2023-04-01T02:03:43;9.30;99.90
40454;DHT22;26160;51.858;4.398;2023-04-01T02:06:13;9.30;99.90
40454;DHT22;26160;51.858;4.398;2023-04-01T02:08:47;9.30;99.90
40454;DHT22;26160;51.858;4.398;2023-04-01T02:11:17;9.40;99.90
40454;DHT22;26160;51.858;4.398;2023-04-01T02:14:04;9.30;99.90
40454;DHT22;26160;51.858;4.398;2023-04-01T02:16:44;9.30;99.90
40454;DHT22;26160;51.858;4.398;2023-04-01T02:19:13;9.30;99.90
40454;DHT22;26160;51.858;4.398;2023-04-01T02:21:40;9.30;99.90
40454;DHT22;26160;51.858;4.398;2023-04-01T02:24:11;9.30;99.90
40454;DHT22;26160;51.858;4.398;2023-04-01T02:26:38;9.40;99.90
40454;DHT22;26160;51.858;4.398;2023-04-01T02:29:06;9.30;99.90
40454;DHT22;26160;51.858;4.398;2023-04-01T02:31:34;9.30;99.90
40454;DHT22;26160;51.858;4.398;2023-04-01T02:34:00;9.30;99.90
40454;DHT22;26160;51.858;4.398;2023-04-01T02:36:27;9.50;99.90
40454;DHT22;26160;51.858;4.398;2023-04-01T02:38:54;9.30;99.90
40454;DHT22;26160;51.858;4.398;2023-04-01T02:41:21;9.30;99.90
40454;DHT22;26160;51.858;4.398;2023-04-01T02:43:47;9.40;99.90
40454;DHT22;26160;51.858;4.398;2023-04-01T02:46:14;9.40;99.90
40454;DHT22;26160;51.858;4.398;2023-04-01T02:48:40;9.40;99.90
40454;DHT22;26160;51.858;4.398;2023-04-01T02:51:07;9.40;99.90
40454;DHT22;26160;51.858;4.398;2023-04-01T02:53:34;9.30;99.90
40454;DHT22;26160;51.858;4.398;2023-04-01T02:56:00;9.40;99.90
40454;DHT22;26160;51.858;4.398;2023-04-01T02:58:26;9.40;99.90
40454;DHT22;26160;51.858;4.398;2023-04-01T03:00:52;9.40;99.90
40454;DHT22;26160;51.858;4.398;2023-04-01T03:03:18;9.40;99.90
40454;DHT22;26160;51.858;4.398;2023-04-01T03:05:44;9.40;99.90
40454;DHT22;26160;51.858;4.398;2023-04-01T03:08:10;9.40;99.90
40454;DHT22;26160;51.858;4.398;2023-04-01T03:10:37;9.40;99.90
40454;DHT22;26160;51.858;4.398;2023-04-01T03:13:03;9.50;99.90
40454;DHT22;26160;51.858;4.398;2023-04-01T03:15:29;9.50;99.90
40454;DHT22;26160;51.858;4.398;2023-04-01T03:17:56;9.50;99.90
40454;DHT22;26160;51.858;4.398;2023-04-01T03:20:22;9.50;99.90
40454;DHT22;26160;51.858;4.398;2023-04-01T03:22:48;9.60;99.90
40454;DHT22;26160;51.858;4.398;2023-04-01T03:25:14;9.60;99.90
40454;DHT22;26160;51.858;4.398;2023-04-01T03:27:40;9.60;99.90
40454;DHT22;26160;51.858;4.398;2023-04-01T03:30:07;9.70;99.90
40454;DHT22;26160;51.858;4.398;2023-04-01T03:32:34;9.70;99.90
40454;DHT22;26160;51.858;4.398;2023-04-01T03:35:00;9.70;99.90
40454;DHT22;26160;51.858;4.398;2023-04-01T03:37:26;9.70;99.90
40454;DHT22;26160;51.858;4.398;2023-04-01T03:39:54;9.70;99.90
40454;DHT22;26160;51.858;4.398;2023-04-01T03:42:20;9.70;99.90
40454;DHT22;26160;51.858;4.398;2023-04-01T03:44:46;9.70;99.90
40454;DHT22;26160;51.858;4.398;2023-04-01T03:47:12;9.70;99.90
40454;DHT22;26160;51.858;4.398;2023-04-01T03:49:38;9.60;99.90
40454;DHT22;26160;51.858;4.398;2023-04-01T03:52:09;9.70;99.90
40454;DHT22;26160;51.858;4.398;2023-04-01T03:54:35;9.70;99.90
40454;DHT22;26160;51.858;4.398;2023-04-01T03:57:01;9.70;99.90
40454;DHT22;26160;51.858;4.398;2023-04-01T03:59:27;9.60;99.90
40454;DHT22;26160;51.858;4.398;2023-04-01T04:01:53;9.70;99.90
40454;DHT22;26160;51.858;4.398;2023-04-01T04:04:20;9.60;99.90
40454;DHT22;26160;51.858;4.398;2023-04-01T04:06:46;9.70;99.90
40454;DHT22;26160;51.858;4.398;2023-04-01T04:09:12;9.70;99.90
40454;DHT22;26160;51.858;4.398;2023-04-01T04:11:38;9.60;99.90
40454;DHT22;26160;51.858;4.398;2023-04-01T04:14:04;9.60;99.90
40454;DHT22;26160;51.858;4.398;2023-04-01T04:16:30;9.50;99.90
40454;DHT22;26160;51.858;4.398;2023-04-01T04:18:56;9.50;99.90
40454;DHT22;26160;51.858;4.398;2023-04-01T04:21:23;9.60;99.90
40454;DHT22;26160;51.858;4.398;2023-04-01T04:23:50;9.60;99.90
40454;DHT22;26160;51.858;4.398;2023-04-01T04:26:17;9.60;99.90
40454;DHT22;26160;51.858;4.398;2023-04-01T04:28:43;9.60;99.90
40454;DHT22;26160;51.858;4.398;2023-04-01T04:31:09;9.60;99.90
40454;DHT22;26160;51.858;4.398;2023-04-01T04:33:36;9.60;99.90
40454;DHT22;26160;51.858;4.398;2023-04-01T04:36:03;9.60;99.90
40454;DHT22;26160;51.858;4.398;2023-04-01T04:38:30;9.60;99.90
40454;DHT22;26160;51.858;4.398;2023-04-01T04:40:56;9.60;99.90
40454;DHT22;26160;51.858;4.398;2023-04-01T04:43:22;9.60;99.90
40454;DHT22;26160;51.858;4.398;2023-04-01T04:45:48;9.60;99.90
40454;DHT22;26160;51.858;4.398;2023-04-01T04:48:16;9.60;99.90
40454;DHT22;26160;51.858;4.398;2023-04-01T04:50:49;9.60;99.90
40454;DHT22;26160;51.858;4.398;2023-04-01T04:53:17;9.60;99.90
40454;DHT22;26160;51.858;4.398;2023-04-01T04:55:48;9.60;99.90
40454;DHT22;26160;51.858;4.398;2023-04-01T04:58:15;9.70;99.90
40454;DHT22;26160;51.858;4.398;2023-04-01T05:00:42;9.50;99.90
40454;DHT22;26160;51.858;4.398;2023-04-01T05:03:08;9.60;99.90
40454;DHT22;26160;51.858;4.398;2023-04-01T05:05:35;9.60;99.90
40454;DHT22;26160;51.858;4.398;2023-04-01T05:08:01;9.60;99.90
40454;DHT22;26160;51.858;4.398;2023-04-01T05:10:28;9.60;99.90
40454;DHT22;26160;51.858;4.398;2023-04-01T05:12:54;9.60;99.90
40454;DHT22;26160;51.858;4.398;2023-04-01T05:15:20;9.50;99.90
40454;DHT22;26160;51.858;4.398;2023-04-01T05:17:46;9.60;99.90
40454;DHT22;26160;51.858;4.398;2023-04-01T05:20:13;9.60;99.90
40454;DHT22;26160;51.858;4.398;2023-04-01T05:22:40;9.60;99.90
40454;DHT22;26160;51.858;4.398;2023-04-01T05:25:06;9.60;99.90
40454;DHT22;26160;51.858;4.398;2023-04-01T05:27:32;9.60;99.90
40454;DHT22;26160;51.858;4.398;2023-04-01T05:29:59;9.50;99.90
40454;DHT22;26160;51.858;4.398;2023-04-01T05:32:25;9.50;99.90
40454;DHT22;26160;51.858;4.398;2023-04-01T05:34:52;9.60;99.90
40454;DHT22;26160;51.858;4.398;2023-04-01T05:37:18;9.50;99.90
40454;DHT22;26160;51.858;4.398;2023-04-01T05:39:45;9.50;99.90
40454;DHT22;26160;51.858;4.398;2023-04-01T05:42:11;9.50;99.90
40454;DHT22;26160;51.858;4.398;2023-04-01T05:44:37;9.60;99.90
40454;DHT22;26160;51.858;4.398;2023-04-01T05:47:04;9.50;99.90
40454;DHT22;26160;51.858;4.398;2023-04-01T05:49:32;9.40;99.90
40454;DHT22;26160;51.858;4.398;2023-04-01T05:51:58;9.40;99.90
40454;DHT22;26160;51.858;4.398;2023-04-01T05:54:25;9.50;99.90
40454;DHT22;26160;51.858;4.398;2023-04-01T05:56:51;9.40;99.90
40454;DHT22;26160;51.858;4.398;2023-04-01T05:59:17;9.40;99.90
40454;DHT22;26160;51.858;4.398;2023-04-01T06:01:43;9.50;99.90
40454;DHT22;26160;51.858;4.398;2023-04-01T06:04:14;9.40;99.90
40454;DHT22;26160;51.858;4.398;2023-04-01T06:06:41;9.40;99.90
40454;DHT22;26160;51.858;4.398;2023-04-01T06:09:19;9.40;99.90
40454;DHT22;26160;51.858;4.398;2023-04-01T06:12:17;9.40;99.90
40454;DHT22;26160;51.858;4.398;2023-04-01T06:20:26;9.50;99.90
40454;DHT22;26160;51.858;4.398;2023-04-01T06:29:10;9.40;99.90
40454;DHT22;26160;51.858;4.398;2023-04-01T06:32:01;9.40;99.90
40454;DHT22;26160;51.858;4.398;2023-04-01T06:40:21;9.40;99.90
40454;DHT22;26160;51.858;4.398;2023-04-01T06:53:26;9.50;99.90
40454;DHT22;26160;51.858;4.398;2023-04-01T06:56:05;9.50;99.90
40454;DHT22;26160;51.858;4.398;2023-04-01T07:01:16;9.50;99.90
40454;DHT22;26160;51.858;4.398;2023-04-01T07:03:49;9.60;99.90
40454;DHT22;26160;51.858;4.398;2023-04-01T07:09:00;9.60;99.90
40454;DHT22;26160;51.858;4.398;2023-04-01T07:11:34;9.60;99.90
40454;DHT22;26160;51.858;4.398;2023-04-01T07:14:01;9.70;99.90
40454;DHT22;26160;51.858;4.398;2023-04-01T07:16:34;9.70;99.90
40454;DHT22;26160;51.858;4.398;2023-04-01T07:24:11;9.70;99.90
40454;DHT22;26160;51.858;4.398;2023-04-01T07:26:39;9.70;99.90
40454;DHT22;26160;51.858;4.398;2023-04-01T07:29:10;9.70;99.90
40454;DHT22;26160;51.858;4.398;2023-04-01T07:37:58;9.80;99.90
40454;DHT22;26160;51.858;4.398;2023-04-01T07:40:28;9.80;99.90
40454;DHT22;26160;51.858;4.398;2023-04-01T07:48:58;9.90;99.90
40454;DHT22;26160;51.858;4.398;2023-04-01T07:56:49;9.90;99.90
40454;DHT22;26160;51.858;4.398;2023-04-01T08:07:54;9.80;99.90
40454;DHT22;26160;51.858;4.398;2023-04-01T08:21:54;10.00;99.90
40454;DHT22;26160;51.858;4.398;2023-04-01T08:24:33;10.00;99.90
40454;DHT22;26160;51.858;4.398;2023-04-01T08:27:03;10.00;99.90
40454;DHT22;26160;51.858;4.398;2023-04-01T08:29:58;9.90;99.90
40454;DHT22;26160;51.858;4.398;2023-04-01T08:32:33;9.90;99.90
40454;DHT22;26160;51.858;4.398;2023-04-01T08:35:28;9.90;99.90
40454;DHT22;26160;51.858;4.398;2023-04-01T08:38:01;9.90;99.90
40454;DHT22;26160;51.858;4.398;2023-04-01T09:06:19;10.00;99.90
40454;DHT22;26160;51.858;4.398;2023-04-01T09:17:23;10.10;99.90
40454;DHT22;26160;51.858;4.398;2023-04-01T09:23:17;10.20;99.90
40454;DHT22;26160;51.858;4.398;2023-04-01T09:32:12;10.10;99.90
40454;DHT22;26160;51.858;4.398;2023-04-01T09:34:57;10.10;99.90
40454;DHT22;26160;51.858;4.398;2023-04-01T09:40:08;10.20;99.90
40454;DHT22;26160;51.858;4.398;2023-04-01T09:53:48;10.30;99.90
40454;DHT22;26160;51.858;4.398;2023-04-01T10:07:54;10.50;99.90
40454;DHT22;26160;51.858;4.398;2023-04-01T10:38:19;10.60;99.90
40454;DHT22;26160;51.858;4.398;2023-04-01T10:44:09;10.60;99.90
40454;DHT22;26160;51.858;4.398;2023-04-01T11:03:36;10.40;99.90
40454;DHT22;26160;51.858;4.398;2023-04-01T11:45:27;10.30;99.90
40454;DHT22;26160;51.858;4.398;2023-04-01T11:48:27;10.30;99.90
40454;DHT22;26160;51.858;4.398;2023-04-01T11:51:15;10.40;99.90
40454;DHT22;26160;51.858;4.398;2023-04-01T11:54:24;10.40;99.90
40454;DHT22;26160;51.858;4.398;2023-04-01T12:05:18;10.50;99.90
40454;DHT22;26160;51.858;4.398;2023-04-01T12:08:06;10.50;99.90
40454;DHT22;26160;51.858;4.398;2023-04-01T12:13:41;10.70;99.90
40454;DHT22;26160;51.858;4.398;2023-04-01T12:33:15;10.60;99.90
40454;DHT22;26160;51.858;4.398;2023-04-01T12:41:42;10.60;99.90
40454;DHT22;26160;51.858;4.398;2023-04-01T12:49:55;10.50;99.90
40454;DHT22;26160;51.858;4.398;2023-04-01T12:55:25;10.70;99.90
40454;DHT22;26160;51.858;4.398;2023-04-01T13:06:40;10.80;99.90
40454;DHT22;26160;51.858;4.398;2023-04-01T13:14:40;10.90;99.90
40454;DHT22;26160;51.858;4.398;2023-04-01T13:17:21;10.90;99.90
40454;DHT22;26160;51.858;4.398;2023-04-01T13:20:11;10.90;99.90
40454;DHT22;26160;51.858;4.398;2023-04-01T13:28:32;10.70;99.90
40454;DHT22;26160;51.858;4.398;2023-04-01T13:36:16;10.80;99.90
40454;DHT22;26160;51.858;4.398;2023-04-01T13:39:10;10.70;99.90
40454;DHT22;26160;51.858;4.398;2023-04-01T13:41:54;10.70;99.90
40454;DHT22;26160;51.858;4.398;2023-04-01T13:52:20;10.80;99.90
40454;DHT22;26160;51.858;4.398;2023-04-01T14:00:51;10.80;99.90
40454;DHT22;26160;51.858;4.398;2023-04-01T14:03:57;10.90;99.90
40454;DHT22;26160;51.858;4.398;2023-04-01T14:06:28;10.90;99.90
40454;DHT22;26160;51.858;4.398;2023-04-01T14:09:13;11.10;99.90
40454;DHT22;26160;51.858;4.398;2023-04-01T14:12:24;11.00;99.90
40454;DHT22;26160;51.858;4.398;2023-04-01T14:20:38;11.30;99.90
40454;DHT22;26160;51.858;4.398;2023-04-01T14:31:54;11.20;99.90
40454;DHT22;26160;51.858;4.398;2023-04-01T14:34:50;11.00;99.90
40454;DHT22;26160;51.858;4.398;2023-04-01T14:46:11;10.90;99.90
40454;DHT22;26160;51.858;4.398;2023-04-01T14:48:50;10.90;99.90
40454;DHT22;26160;51.858;4.398;2023-04-01T14:51:35;11.00;99.90
40454;DHT22;26160;51.858;4.398;2023-04-01T14:54:36;11.00;99.90
40454;DHT22;26160;51.858;4.398;2023-04-01T14:57:12;11.00;99.90
40454;DHT22;26160;51.858;4.398;2023-04-01T15:00:14;11.10;99.90
40454;DHT22;26160;51.858;4.398;2023-04-01T15:05:41;11.10;99.90
40454;DHT22;26160;51.858;4.398;2023-04-01T15:08:26;10.90;99.90
40454;DHT22;26160;51.858;4.398;2023-04-01T15:16:16;11.10;99.90
40454;DHT22;26160;51.858;4.398;2023-04-01T15:32:49;11.10;99.90
40454;DHT22;26160;51.858;4.398;2023-04-01T15:35:42;11.20;99.90
40454;DHT22;26160;51.858;4.398;2023-04-01T15:41:02;11.20;99.90
40454;DHT22;26160;51.858;4.398;2023-04-01T15:43:40;11.20;99.90
40454;DHT22;26160;51.858;4.398;2023-04-01T15:57:04;11.00;99.90
40454;DHT22;26160;51.858;4.398;2023-04-01T16:05:30;10.80;99.90
40454;DHT22;26160;51.858;4.398;2023-04-01T16:16:31;10.70;99.90
40454;DHT22;26160;51.858;4.398;2023-04-01T16:28:33;10.50;99.90
40454;DHT22;26160;51.858;4.398;2023-04-01T16:31:35;10.50;99.90
40454;DHT22;26160;51.858;4.398;2023-04-01T16:37:38;10.50;99.90
40454;DHT22;26160;51.858;4.398;2023-04-01T16:42:52;10.50;99.90
40454;DHT22;26160;51.858;4.398;2023-04-01T16:47:56;10.60;99.90
40454;DHT22;26160;51.858;4.398;2023-04-01T16:50:25;10.60;99.90
40454;DHT22;26160;51.858;4.398;2023-04-01T16:55:54;10.60;99.90
40454;DHT22;26160;51.858;4.398;2023-04-01T16:59:26;10.60;99.90
40454;DHT22;26160;51.858;4.398;2023-04-01T17:02:02;10.60;99.90
40454;DHT22;26160;51.858;4.398;2023-04-01T17:24:46;10.50;99.90
40454;DHT22;26160;51.858;4.398;2023-04-01T17:27:47;10.50;99.90
40454;DHT22;26160;51.858;4.398;2023-04-01T17:36:59;10.40;99.90
40454;DHT22;26160;51.858;4.398;2023-04-01T17:45:57;10.40;99.90
40454;DHT22;26160;51.858;4.398;2023-04-01T17:56:44;10.30;99.90
40454;DHT22;26160;51.858;4.398;2023-04-01T17:59:39;10.30;99.90
40454;DHT22;26160;51.858;4.398;2023-04-01T18:02:54;10.30;99.90
40454;DHT22;26160;51.858;4.398;2023-04-01T18:05:59;10.30;99.90
40454;DHT22;26160;51.858;4.398;2023-04-01T18:08:37;10.30;99.90
40454;DHT22;26160;51.858;4.398;2023-04-01T18:23:03;10.20;99.90
40454;DHT22;26160;51.858;4.398;2023-04-01T18:26:05;10.20;99.90
40454;DHT22;26160;51.858;4.398;2023-04-01T18:48:54;10.10;99.90
40454;DHT22;26160;51.858;4.398;2023-04-01T20:55:19;9.30;99.90
40454;DHT22;26160;51.858;4.398;2023-04-01T21:04:08;9.20;99.90
40454;DHT22;26160;51.858;4.398;2023-04-01T21:23:42;9.20;99.90
40454;DHT22;26160;51.858;4.398;2023-04-01T21:35:30;8.90;99.90
40454;DHT22;26160;51.858;4.398;2023-04-01T21:38:08;8.90;99.90
40454;DHT22;26160;51.858;4.398;2023-04-01T21:40:47;8.90;99.90
40454;DHT22;26160;51.858;4.398;2023-04-01T21:55:52;8.80;99.90
40454;DHT22;26160;51.858;4.398;2023-04-01T22:06:43;8.70;99.90
40454;DHT22;26160;51.858;4.398;2023-04-01T22:09:21;8.70;99.90
40454;DHT22;26160;51.858;4.398;2023-04-01T22:12:12;8.60;99.90
40454;DHT22;26160;51.858;4.398;2023-04-01T22:17:51;8.60;99.90
40454;DHT22;26160;51.858;4.398;2023-04-01T22:20:28;8.50;99.90
40454;DHT22;26160;51.858;4.398;2023-04-01T22:31:14;8.40;99.90
40454;DHT22;26160;51.858;4.398;2023-04-01T22:42:42;8.30;99.90
40454;DHT22;26160;51.858;4.398;2023-04-01T22:45:41;8.30;99.90
40454;DHT22;26160;51.858;4.398;2023-04-01T22:51:03;8.20;99.90
40454;DHT22;26160;51.858;4.398;2023-04-01T22:53:55;8.20;99.90
40454;DHT22;26160;51.858;4.398;2023-04-01T22:56:34;8.20;99.90
40454;DHT22;26160;51.858;4.398;2023-04-01T22:59:13;8.10;99.90
40454;DHT22;26160;51.858;4.398;2023-04-01T23:01:46;8.10;99.90
40454;DHT22;26160;51.858;4.398;2023-04-01T23:04:16;8.10;99.90
40454;DHT22;26160;51.858;4.398;2023-04-01T23:06:53;8.10;99.90
40454;DHT22;26160;51.858;4.398;2023-04-01T23:09:27;8.10;99.90
40454;DHT22;26160;51.858;4.398;2023-04-01T23:12:13;8.10;99.90
40454;DHT22;26160;51.858;4.398;2023-04-01T23:14:47;8.10;99.90
40454;DHT22;26160;51.858;4.398;2023-04-01T23:17:36;8.10;99.90
40454;DHT22;26160;51.858;4.398;2023-04-01T23:20:29;8.10;99.90
40454;DHT22;26160;51.858;4.398;2023-04-01T23:23:15;8.10;99.90
40454;DHT22;26160;51.858;4.398;2023-04-01T23:25:46;8.10;99.90
40454;DHT22;26160;51.858;4.398;2023-04-01T23:28:17;8.00;99.90
40454;DHT22;26160;51.858;4.398;2023-04-01T23:38:21;8.00;99.90
40454;DHT22;26160;51.858;4.398;2023-04-01T23:40:50;8.10;99.90
40454;DHT22;26160;51.858;4.398;2023-04-01T23:43:47;8.00;99.90
40454;DHT22;26160;51.858;4.398;2023-04-01T23:46:15;7.90;99.90
40454;DHT22;26160;51.858;4.398;2023-04-01T23:48:46;8.00;99.90
40454;DHT22;26160;51.858;4.398;2023-04-01T23:51:20;8.00;99.90
40454;DHT22;26160;51.858;4.398;2023-04-01T23:53:48;8.00;99.90
40454;DHT22;26160;51.858;4.398;2023-04-01T23:56:22;8.00;99.90
40454;DHT22;26160;51.858;4.398;2023-04-01T23:58:49;8.00;99.90
